createdAt,value
2023-03-06T00:02:29.651Z,58.57
2023-03-06T00:05:16.886Z,55.07
2023-03-06T00:08:04.203Z,54.29
2023-03-06T00:10:50.862Z,55.42
2023-03-06T00:13:38.390Z,56.62
2023-03-06T00:16:25.194Z,57.89
2023-03-06T00:19:11.939Z,59.43
2023-03-06T00:21:58.676Z,60.16
2023-03-06T00:24:45.531Z,61.32
2023-03-06T00:27:32.901Z,61.94
2023-03-06T00:30:22.932Z,63.60
2023-03-06T00:33:10.657Z,62.69
2023-03-06T00:35:57.143Z,59.14
2023-03-06T00:38:44.203Z,57.55
2023-03-06T00:41:31.304Z,58.59
2023-03-06T00:44:18.106Z,59.42
2023-03-06T00:47:04.967Z,60.58
2023-03-06T00:49:51.681Z,62.58
2023-03-06T00:52:39.877Z,65.62
2023-03-06T00:55:29.373Z,63.74
2023-03-06T00:58:16.624Z,62.53
2023-03-06T01:01:04.661Z,54.05
2023-03-06T01:03:51.148Z,53.67
2023-03-06T01:06:39.806Z,55.31
2023-03-06T01:09:27.072Z,57.24
2023-03-06T01:12:13.855Z,58.24
2023-03-06T01:15:00.563Z,59.60
2023-03-06T01:17:53.049Z,60.84
2023-03-06T01:20:39.520Z,62.40
2023-03-06T01:23:26.173Z,63.45
2023-03-06T01:26:14.917Z,60.53
2023-03-06T01:29:01.940Z,58.03
2023-03-06T01:31:48.829Z,58.23
2023-03-06T01:34:35.467Z,59.65
2023-03-06T01:37:22.780Z,61.05
2023-03-06T01:40:12.463Z,62.54
2023-03-06T01:43:25.618Z,61.88
2023-03-06T01:46:32.070Z,60.04
2023-03-06T01:49:22.090Z,55.44
2023-03-06T01:52:15.238Z,56.29
2023-03-06T01:55:12.263Z,58.36
2023-03-06T01:58:04.199Z,60.80
2023-03-06T02:00:51.382Z,61.88
2023-03-06T02:03:40.375Z,63.23
2023-03-06T02:06:27.506Z,63.34
2023-03-06T02:09:15.584Z,58.85
2023-03-06T02:12:07.427Z,56.84
2023-03-06T02:14:54.337Z,57.13
2023-03-06T02:17:45.414Z,58.94
2023-03-06T02:20:45.450Z,59.31
2023-03-06T02:24:06.208Z,61.01
2023-03-06T02:26:55.249Z,62.80
2023-03-06T02:29:43.558Z,62.21
2023-03-06T02:32:30.665Z,58.50
2023-03-06T02:35:22.115Z,56.78
2023-03-06T02:38:14.387Z,58.08
2023-03-06T02:41:06.444Z,59.13
2023-03-06T02:43:53.217Z,60.73
2023-03-06T02:46:40.031Z,61.96
2023-03-06T02:49:26.847Z,63.63
2023-03-06T02:52:13.674Z,64.59
2023-03-06T02:55:00.702Z,62.18
2023-03-06T02:57:47.725Z,57.61
2023-03-06T03:00:34.864Z,56.57
2023-03-06T03:03:23.071Z,58.14
2023-03-06T03:06:09.639Z,58.79
2023-03-06T03:08:56.727Z,60.55
2023-03-06T03:11:43.907Z,61.10
2023-03-06T03:14:30.820Z,63.23
2023-03-06T03:17:17.640Z,63.90
2023-03-06T03:20:10.992Z,64.61
2023-03-06T03:22:57.873Z,62.08
2023-03-06T03:25:44.705Z,58.14
2023-03-06T03:28:32.592Z,54.26
2023-03-06T03:31:19.729Z,55.68
2023-03-06T03:34:08.065Z,57.36
2023-03-06T03:36:56.939Z,57.88
2023-03-06T03:39:43.812Z,60.13
2023-03-06T03:42:31.608Z,61.08
2023-03-06T03:45:18.926Z,62.97
2023-03-06T03:48:05.840Z,64.07
2023-03-06T03:50:53.108Z,59.59
2023-03-06T03:53:40.146Z,57.24
2023-03-06T03:56:27.822Z,57.84
2023-03-06T03:59:19.187Z,59.55
2023-03-06T04:02:14.812Z,60.28
2023-03-06T04:05:09.722Z,61.72
2023-03-06T04:07:56.739Z,63.63
2023-03-06T04:10:43.769Z,64.12
2023-03-06T04:13:31.474Z,62.52
2023-03-06T04:16:18.516Z,62.87
2023-03-06T04:19:05.607Z,60.94
2023-03-06T04:21:53.204Z,56.34
2023-03-06T04:24:40.826Z,53.72
2023-03-06T04:27:28.465Z,53.85
2023-03-06T04:30:15.653Z,55.53
2023-03-06T04:33:03.076Z,55.77
2023-03-06T04:35:50.259Z,57.12
2023-03-06T04:38:41.163Z,58.58
2023-03-06T04:41:28.169Z,59.30
2023-03-06T04:44:14.935Z,61.03
2023-03-06T04:47:01.927Z,62.71
2023-03-06T04:49:48.326Z,65.92
2023-03-06T04:52:35.113Z,66.06
2023-03-06T04:55:21.954Z,62.82
2023-03-06T04:58:11.850Z,59.00
2023-03-06T05:00:58.529Z,55.34
2023-03-06T05:03:45.150Z,55.65
2023-03-06T05:06:31.943Z,56.53
2023-03-06T05:09:18.533Z,57.17
2023-03-06T05:12:05.681Z,59.08
2023-03-06T05:14:52.755Z,59.60
2023-03-06T05:17:39.911Z,61.23
2023-03-06T05:20:28.192Z,62.13
2023-03-06T05:23:15.178Z,65.29
2023-03-06T05:26:13.823Z,65.23
2023-03-06T05:29:00.294Z,64.95
2023-03-06T05:31:46.909Z,62.40
2023-03-06T05:34:33.996Z,60.25
2023-03-06T05:37:22.502Z,54.88
2023-03-06T05:40:11.048Z,53.18
2023-03-06T05:42:57.962Z,53.91
2023-03-06T05:45:44.755Z,54.27
2023-03-06T05:48:32.799Z,56.26
2023-03-06T05:51:19.721Z,56.69
2023-03-06T05:54:06.391Z,57.86
2023-03-06T05:56:56.816Z,59.58
2023-03-06T05:59:43.352Z,59.98
2023-03-06T06:02:30.400Z,62.50
2023-03-06T06:05:17.307Z,67.54
2023-03-06T06:08:04.168Z,64.20
2023-03-06T06:10:53.316Z,63.42
2023-03-06T06:13:41.638Z,59.65
2023-03-06T06:16:28.311Z,55.11
2023-03-06T06:19:18.281Z,53.47
2023-03-06T06:22:05.189Z,54.75
2023-03-06T06:24:52.329Z,55.84
2023-03-06T06:27:39.054Z,56.57
2023-03-06T06:30:25.865Z,57.58
2023-03-06T06:33:12.513Z,58.93
2023-03-06T06:35:59.218Z,61.02
2023-03-06T06:38:46.307Z,61.70
2023-03-06T06:41:51.810Z,63.14
2023-03-06T06:44:39.997Z,63.85
2023-03-06T06:47:27.109Z,61.35
2023-03-06T06:50:14.259Z,55.82
2023-03-06T06:53:01.119Z,55.15
2023-03-06T06:55:47.655Z,56.18
2023-03-06T06:58:34.656Z,58.18
2023-03-06T07:01:21.844Z,59.58
2023-03-06T07:04:15.229Z,60.22
2023-03-06T07:07:02.963Z,61.00
2023-03-06T07:09:50.007Z,62.66
2023-03-06T07:12:36.853Z,64.60
2023-03-06T07:15:26.285Z,61.33
2023-03-06T07:18:13.089Z,54.72
2023-03-06T07:21:01.407Z,48.39
2023-03-06T07:23:48.295Z,49.77
2023-03-06T07:26:35.114Z,48.73
2023-03-06T07:29:21.824Z,44.73
2023-03-06T07:32:08.751Z,43.81
2023-03-06T07:35:12.917Z,41.97
2023-03-06T07:38:02.039Z,39.53
2023-03-06T07:40:52.727Z,37.20
2023-03-06T07:43:41.409Z,34.95
2023-03-06T07:46:28.652Z,33.95
2023-03-06T07:49:16.527Z,33.01
2023-03-06T07:52:03.526Z,31.90
2023-03-06T07:54:50.357Z,31.12
2023-03-06T07:57:38.173Z,31.06
2023-03-06T08:00:25.083Z,30.45
2023-03-06T08:03:12.924Z,29.02
2023-03-06T08:06:16.084Z,27.25
2023-03-06T08:09:03.566Z,26.44
2023-03-06T08:11:50.692Z,26.52
2023-03-06T08:14:37.584Z,26.19
2023-03-06T08:17:24.743Z,26.02
2023-03-06T08:20:13.875Z,25.68
2023-03-06T08:23:00.912Z,25.13
2023-03-06T08:25:57.032Z,24.42
2023-03-06T08:28:44.870Z,23.73
2023-03-06T08:31:34.716Z,23.46
2023-03-06T08:34:24.169Z,22.93
2023-03-06T08:37:11.031Z,22.74
2023-03-06T08:39:58.234Z,22.62
2023-03-06T08:42:47.857Z,22.46
2023-03-06T08:45:35.040Z,22.54
2023-03-06T08:48:22.098Z,22.03
2023-03-06T08:51:10.027Z,21.50
2023-03-06T08:53:57.781Z,21.28
2023-03-06T08:56:44.906Z,20.97
2023-03-06T08:59:31.675Z,20.93
2023-03-06T09:02:18.382Z,20.84
2023-03-06T09:05:07.860Z,20.55
2023-03-06T09:07:54.961Z,20.92
2023-03-06T09:10:47.492Z,20.70
2023-03-06T09:13:34.140Z,19.66
2023-03-06T09:16:21.316Z,19.22
2023-03-06T09:19:08.092Z,20.14
2023-03-06T09:21:54.680Z,21.65
2023-03-06T09:24:41.404Z,22.19
2023-03-06T09:27:28.682Z,21.99
2023-03-06T09:30:17.158Z,21.40
2023-03-06T09:33:03.976Z,20.66
2023-03-06T09:35:56.966Z,20.38
2023-03-06T09:38:47.205Z,19.72
2023-03-06T09:41:40.055Z,19.32
2023-03-06T09:44:31.684Z,18.81
2023-03-06T09:47:44.542Z,18.46
2023-03-06T09:50:54.629Z,18.79
2023-03-06T09:54:11.555Z,18.36
2023-03-06T09:56:58.503Z,17.99
2023-03-06T09:59:50.566Z,17.26
2023-03-06T10:02:37.341Z,17.22
2023-03-06T10:05:38.958Z,17.59
2023-03-06T10:09:12.880Z,18.89
2023-03-06T10:12:06.078Z,19.80
2023-03-06T10:15:10.389Z,19.50
2023-03-06T10:17:57.152Z,19.36
2023-03-06T10:21:16.909Z,20.06
2023-03-06T10:24:42.756Z,19.27
2023-03-06T10:27:53.389Z,19.26
2023-03-06T10:30:45.549Z,19.80
2023-03-06T10:33:52.366Z,20.62
2023-03-06T10:36:39.260Z,21.78
2023-03-06T10:39:27.847Z,22.64
2023-03-06T10:42:14.674Z,21.74
2023-03-06T10:45:14.333Z,21.91
2023-03-06T10:48:11.460Z,22.59
2023-03-06T10:51:22.918Z,21.09
2023-03-06T10:54:12.594Z,20.84
2023-03-06T10:57:16.603Z,20.15
2023-03-06T11:00:24.446Z,20.41
2023-03-06T11:03:29.797Z,21.21
2023-03-06T11:06:43.425Z,22.47
2023-03-06T11:09:32.720Z,23.11
2023-03-06T11:12:37.377Z,24.29
2023-03-06T11:15:26.703Z,24.70
2023-03-06T11:18:13.179Z,25.43
2023-03-06T11:21:01.739Z,26.06
2023-03-06T11:23:49.813Z,27.01
2023-03-06T11:26:46.666Z,27.80
2023-03-06T11:29:48.035Z,28.22
2023-03-06T11:32:47.399Z,28.66
2023-03-06T11:36:28.946Z,29.58
2023-03-06T11:39:41.308Z,30.23
2023-03-06T11:42:36.753Z,30.67
2023-03-06T11:45:26.569Z,31.93
2023-03-06T11:48:13.448Z,32.33
2023-03-06T11:51:38.960Z,30.88
2023-03-06T11:54:26.294Z,28.90
2023-03-06T11:57:23.204Z,27.30
2023-03-06T12:00:33.067Z,26.96
2023-03-06T12:03:36.823Z,25.98
2023-03-06T12:07:10.609Z,24.94
2023-03-06T12:10:10.429Z,24.47
2023-03-06T12:13:29.325Z,24.64
2023-03-06T12:16:54.519Z,25.09
2023-03-06T12:20:13.347Z,24.50
2023-03-06T12:23:50.775Z,24.99
2023-03-06T12:26:49.837Z,24.67
2023-03-06T12:30:05.003Z,24.67
2023-03-06T12:33:11.224Z,25.05
2023-03-06T12:36:03.089Z,25.75
2023-03-06T12:39:52.396Z,27.08
2023-03-06T12:42:39.351Z,28.94
2023-03-06T12:45:33.093Z,30.83
2023-03-06T12:48:28.914Z,33.65
2023-03-06T12:51:19.912Z,32.95
2023-03-06T12:54:10.369Z,33.65
2023-03-06T12:56:59.838Z,34.79
2023-03-06T12:59:48.743Z,35.89
2023-03-06T13:03:05.998Z,37.13
2023-03-06T13:06:39.157Z,38.36
2023-03-06T13:10:12.494Z,38.92
2023-03-06T13:13:08.051Z,39.33
2023-03-06T13:16:29.703Z,39.71
2023-03-06T13:19:26.576Z,39.00
2023-03-06T13:22:26.802Z,39.31
2023-03-06T13:25:17.006Z,39.41
2023-03-06T13:28:04.335Z,39.44
2023-03-06T13:30:53.211Z,39.63
2023-03-06T13:33:40.348Z,39.20
2023-03-06T13:36:32.629Z,39.34
2023-03-06T13:39:19.756Z,38.81
2023-03-06T13:42:06.827Z,37.94
2023-03-06T13:44:56.861Z,37.21
2023-03-06T13:48:21.188Z,37.45
2023-03-06T13:51:33.350Z,37.19
2023-03-06T13:55:03.568Z,37.37
2023-03-06T13:58:35.786Z,37.63
2023-03-06T14:02:04.466Z,37.85
2023-03-06T14:04:59.866Z,38.37
2023-03-06T14:08:18.178Z,39.00
2023-03-06T14:11:22.474Z,39.30
2023-03-06T14:14:11.518Z,39.15
2023-03-06T14:16:59.941Z,39.79
2023-03-06T14:19:47.074Z,39.89
2023-03-06T14:22:33.976Z,40.13
2023-03-06T14:25:30.780Z,41.47
2023-03-06T14:28:30.850Z,40.67
2023-03-06T14:31:24.418Z,40.74
2023-03-06T14:34:40.619Z,40.98
2023-03-06T14:37:28.569Z,40.91
2023-03-06T14:40:24.049Z,41.15
2023-03-06T14:43:30.670Z,40.90
2023-03-06T14:46:22.073Z,41.03
2023-03-06T14:49:08.748Z,41.40
2023-03-06T14:52:01.111Z,42.31
2023-03-06T14:54:49.112Z,41.62
2023-03-06T14:57:36.235Z,41.44
2023-03-06T15:00:30.015Z,41.90
2023-03-06T15:03:49.089Z,41.64
2023-03-06T15:06:43.110Z,41.54
2023-03-06T15:09:33.530Z,42.14
2023-03-06T15:12:20.757Z,42.20
2023-03-06T15:15:10.516Z,42.37
2023-03-06T15:17:57.140Z,42.59
2023-03-06T15:20:53.916Z,43.13
2023-03-06T15:23:43.746Z,43.50
2023-03-06T15:26:36.131Z,43.97
2023-03-06T15:29:23.687Z,43.79
2023-03-06T15:32:24.221Z,44.39
2023-03-06T15:35:32.552Z,45.01
2023-03-06T15:38:31.698Z,44.63
2023-03-06T15:41:26.049Z,45.15
2023-03-06T15:44:14.507Z,45.53
2023-03-06T15:47:08.805Z,46.13
2023-03-06T15:49:56.401Z,46.63
2023-03-06T15:52:45.393Z,46.73
2023-03-06T15:55:32.778Z,47.10
2023-03-06T15:58:24.165Z,47.96
2023-03-06T16:01:17.063Z,47.70
2023-03-06T16:04:04.081Z,48.07
2023-03-06T16:06:50.570Z,49.32
2023-03-06T16:09:37.881Z,49.66
2023-03-06T16:12:24.905Z,48.33
2023-03-06T16:15:29.837Z,48.90
2023-03-06T16:18:17.469Z,48.15
2023-03-06T16:21:05.965Z,49.72
2023-03-06T16:23:53.200Z,50.00
2023-03-06T16:26:41.344Z,50.60
2023-03-06T16:29:29.479Z,51.52
2023-03-06T16:32:16.289Z,50.52
2023-03-06T16:35:03.502Z,50.78
2023-03-06T16:37:50.633Z,50.90
2023-03-06T16:40:40.560Z,52.10
2023-03-06T16:43:27.619Z,51.33
2023-03-06T16:46:23.935Z,51.97
2023-03-06T16:49:20.869Z,51.70
2023-03-06T16:52:10.559Z,52.08
2023-03-06T16:54:57.324Z,52.78
2023-03-06T16:57:44.217Z,52.91
2023-03-06T17:00:34.123Z,53.12
2023-03-06T17:03:21.054Z,53.98
2023-03-06T17:06:20.721Z,53.46
2023-03-06T17:09:07.359Z,53.19
2023-03-06T17:11:55.789Z,54.31
2023-03-06T17:14:42.756Z,54.78
2023-03-06T17:17:31.419Z,55.79
2023-03-06T17:20:19.821Z,54.58
2023-03-06T17:23:07.005Z,54.10
2023-03-06T17:26:29.933Z,53.71
2023-03-06T17:29:17.348Z,53.61
2023-03-06T17:32:07.118Z,54.28
2023-03-06T17:34:55.571Z,56.26
2023-03-06T17:37:42.520Z,57.46
2023-03-06T17:40:29.626Z,58.78
2023-03-06T17:43:16.506Z,58.02
2023-03-06T17:46:05.733Z,57.48
2023-03-06T17:48:53.106Z,56.54
2023-03-06T17:51:40.583Z,58.11
2023-03-06T17:54:30.266Z,57.09
2023-03-06T17:57:17.456Z,56.27
2023-03-06T18:00:05.965Z,56.88
2023-03-06T18:02:59.139Z,57.90
2023-03-06T18:05:58.205Z,57.78
2023-03-06T18:08:46.087Z,57.58
2023-03-06T18:11:32.932Z,57.38
2023-03-06T18:14:20.204Z,59.87
2023-03-06T18:17:08.397Z,59.79
2023-03-06T18:19:56.340Z,65.99
2023-03-06T18:22:43.191Z,66.12
2023-03-06T18:25:31.864Z,67.70
2023-03-06T18:28:19.024Z,62.40
2023-03-06T18:31:17.886Z,57.81
2023-03-06T18:34:10.186Z,55.20
2023-03-06T18:36:58.353Z,54.89
2023-03-06T18:39:45.363Z,57.01
2023-03-06T18:42:32.441Z,56.77
2023-03-06T18:45:20.882Z,59.51
2023-03-06T18:48:08.461Z,59.06
2023-03-06T18:50:54.773Z,59.01
2023-03-06T18:53:43.062Z,58.98
2023-03-06T18:56:29.649Z,58.80
2023-03-06T18:59:18.771Z,58.57
2023-03-06T19:02:06.555Z,60.34
2023-03-06T19:04:54.032Z,67.58
2023-03-06T19:07:40.891Z,75.26
2023-03-06T19:10:29.528Z,65.78
2023-03-06T19:13:16.520Z,54.07
2023-03-06T19:16:03.987Z,51.48
2023-03-06T19:18:50.819Z,53.48
2023-03-06T19:21:37.559Z,55.14
2023-03-06T19:24:24.445Z,55.99
2023-03-06T19:27:11.851Z,56.60
2023-03-06T19:29:58.448Z,58.30
2023-03-06T19:32:46.275Z,60.64
2023-03-06T19:35:35.631Z,68.36
2023-03-06T19:38:23.594Z,70.98
2023-03-06T19:41:13.121Z,63.95
2023-03-06T19:44:05.220Z,60.18
2023-03-06T19:46:52.049Z,54.95
2023-03-06T19:49:38.829Z,54.43
2023-03-06T19:52:25.654Z,55.95
2023-03-06T19:55:12.968Z,57.44
2023-03-06T19:58:00.209Z,58.04
2023-03-06T20:00:47.002Z,59.34
2023-03-06T20:03:33.621Z,57.16
2023-03-06T20:06:21.679Z,57.98
2023-03-06T20:09:09.021Z,58.15
2023-03-06T20:11:57.021Z,58.70
2023-03-06T20:14:45.656Z,60.54
2023-03-06T20:17:34.997Z,60.41
2023-03-06T20:20:21.735Z,61.95
2023-03-06T20:23:08.750Z,65.61
2023-03-06T20:25:55.700Z,71.17
2023-03-06T20:28:42.795Z,67.43
2023-03-06T20:31:30.371Z,63.48
2023-03-06T20:34:16.937Z,62.65
2023-03-06T20:37:04.822Z,58.89
2023-03-06T20:39:52.159Z,54.39
2023-03-06T20:42:39.367Z,52.30
2023-03-06T20:45:26.108Z,52.69
2023-03-06T20:48:12.998Z,54.27
2023-03-06T20:51:17.622Z,55.27
2023-03-06T20:54:07.354Z,57.01
2023-03-06T20:56:54.190Z,58.43
2023-03-06T20:59:41.563Z,59.08
2023-03-06T21:02:28.326Z,60.27
2023-03-06T21:05:17.110Z,60.69
2023-03-06T21:08:03.914Z,61.58
2023-03-06T21:10:50.988Z,65.66
2023-03-06T21:13:38.250Z,73.12
2023-03-06T21:16:27.340Z,68.10
2023-03-06T21:19:16.256Z,62.04
2023-03-06T21:22:03.515Z,61.14
2023-03-06T21:24:50.376Z,56.57
2023-03-06T21:27:39.565Z,50.58
2023-03-06T21:30:28.344Z,50.48
2023-03-06T21:33:15.618Z,52.73
2023-03-06T21:36:04.006Z,55.90
2023-03-06T21:38:52.231Z,58.61
2023-03-06T21:41:39.995Z,60.82
2023-03-06T21:44:26.868Z,62.66
2023-03-06T21:47:13.583Z,67.93
2023-03-06T21:50:00.421Z,67.39
2023-03-06T21:52:47.229Z,60.91
2023-03-06T21:55:37.338Z,53.22
2023-03-06T21:58:24.295Z,51.85
2023-03-06T22:01:15.239Z,53.92
2023-03-06T22:04:02.651Z,56.05
2023-03-06T22:06:49.582Z,58.92
2023-03-06T22:09:36.887Z,60.37
2023-03-06T22:12:24.095Z,64.04
2023-03-06T22:15:11.341Z,67.01
2023-03-06T22:17:58.286Z,60.58
2023-03-06T22:20:45.084Z,53.13
2023-03-06T22:23:32.021Z,50.21
2023-03-06T22:26:19.588Z,52.11
2023-03-06T22:29:06.355Z,53.92
2023-03-06T22:31:53.460Z,56.28
2023-03-06T22:34:40.732Z,59.78
2023-03-06T22:37:27.499Z,61.33
2023-03-06T22:40:14.171Z,64.19
2023-03-06T22:43:01.139Z,59.62
2023-03-06T22:45:48.227Z,53.51
2023-03-06T22:48:36.882Z,53.25
2023-03-06T22:51:24.911Z,56.46
2023-03-06T22:54:11.857Z,59.37
2023-03-06T22:56:58.510Z,61.44
2023-03-06T22:59:45.390Z,63.45
2023-03-06T23:02:34.600Z,62.77
2023-03-06T23:05:21.486Z,56.78
2023-03-06T23:08:09.125Z,51.38
2023-03-06T23:10:55.773Z,53.72
2023-03-06T23:14:02.132Z,56.96
2023-03-06T23:17:07.705Z,59.53
2023-03-06T23:20:14.110Z,61.53
2023-03-06T23:23:19.746Z,64.93
2023-03-06T23:26:08.205Z,57.61
2023-03-06T23:28:56.553Z,51.47
2023-03-06T23:31:43.352Z,54.25
2023-03-06T23:34:30.319Z,56.76
2023-03-06T23:37:16.932Z,59.27
2023-03-06T23:40:07.346Z,61.42
2023-03-06T23:42:54.278Z,63.24
2023-03-06T23:45:41.189Z,65.46
2023-03-06T23:48:28.530Z,56.26
2023-03-06T23:51:22.042Z,51.52
2023-03-06T23:54:09.744Z,54.81
2023-03-06T23:56:56.477Z,58.44
2023-03-06T23:59:43.929Z,60.53
